Time,TemperatureF,DewpointF,PressureIn,WindDirection,WindDirectionDegrees,WindSpeedMPH,WindSpeedGustMPH,Humidity,HourlyPrecipIn,Conditions,Clouds,dailyrainin,SolarRadiationWatts/m^2,SoftwareType,DateUTC
2013-04-13 00:30:00,41.0,36.0,-100.00,South,174,5.0,7.0,81,-99.99,,,-99.99,0.000000,,2013-04-13 07:30:00,
2013-04-13 02:23:00,41.0,32.0,-100.00,SSE,157,2.0,5.0,70,-99.99,,,-99.99,0.000000,,2013-04-13 09:23:00,
2013-04-13 02:30:00,42.0,28.0,-100.00,SSE,167,7.0,10.0,57,-99.99,,,-99.99,0.000000,,2013-04-13 09:30:00,
2013-04-13 03:24:00,42.0,28.0,-100.00,SSE,167,7.0,10.0,57,-99.99,,,-99.99,0.000000,,2013-04-13 10:24:00,
2013-04-13 03:30:00,41.0,29.0,-100.00,South,172,5.0,8.0,60,-99.99,,,-99.99,0.000000,,2013-04-13 10:30:00,
2013-04-13 04:30:00,41.0,24.0,-100.00,South,191,4.0,7.0,49,-99.99,,,-99.99,0.000000,,2013-04-13 11:30:00,
2013-04-13 05:23:00,41.0,24.0,-100.00,South,191,4.0,7.0,49,-99.99,,,-99.99,0.000000,,2013-04-13 12:23:00,
2013-04-13 05:30:00,41.0,27.0,-100.00,SW,223,2.0,5.0,58,-99.99,,,-99.99,0.000000,,2013-04-13 12:30:00,
2013-04-13 06:24:00,41.0,27.0,-100.00,SW,223,2.0,5.0,58,-99.99,,,-99.99,0.000000,,2013-04-13 13:24:00,
2013-04-13 06:30:00,39.0,32.0,-100.00,WSW,257,2.0,5.0,77,-99.99,,,-99.99,1.000000,,2013-04-13 13:30:00,
2013-04-13 07:23:00,39.0,32.0,-100.00,WSW,257,2.0,5.0,77,-99.99,,,-99.99,1.000000,,2013-04-13 14:23:00,
2013-04-13 07:30:00,40.0,34.0,-100.00,SW,223,1.0,4.0,79,-99.99,,,-99.99,59.000000,,2013-04-13 14:30:00,
2013-04-13 08:30:00,42.0,30.0,-100.00,SSE,153,5.0,8.0,61,-99.99,,,-99.99,161.000000,,2013-04-13 15:30:00,
2013-04-13 09:24:00,42.0,30.0,-100.00,SSE,153,5.0,8.0,61,-99.99,,,-99.99,161.000000,,2013-04-13 16:24:00,
2013-04-13 09:30:00,44.0,28.0,-100.00,SSW,205,4.0,7.0,53,-99.99,,,-99.99,358.000000,,2013-04-13 16:30:00,
2013-04-13 10:24:00,44.0,28.0,-100.00,SSW,205,4.0,7.0,53,-99.99,,,-99.99,358.000000,,2013-04-13 17:24:00,
2013-04-13 10:30:00,46.0,29.0,-100.00,SSW,210,3.0,8.0,52,-99.99,,,-99.99,520.000000,,2013-04-13 17:30:00,
2013-04-13 11:24:00,46.0,29.0,-100.00,SSW,210,3.0,8.0,52,-99.99,,,-99.99,520.000000,,2013-04-13 18:24:00,
2013-04-13 11:30:00,47.0,27.0,-100.00,SW,219,3.0,9.0,46,-99.99,,,-99.99,627.000000,,2013-04-13 18:30:00,
2013-04-13 12:30:00,48.0,31.0,-100.00,SSW,211,3.0,13.0,51,-99.99,,,-99.99,550.000000,,2013-04-13 19:30:00,
2013-04-13 13:22:00,48.0,31.0,-100.00,SSW,211,3.0,13.0,51,-99.99,,,-99.99,550.000000,,2013-04-13 20:22:00,
2013-04-13 13:30:00,49.0,31.0,-100.00,WSW,238,3.0,8.0,50,-99.99,,,-99.99,526.000000,,2013-04-13 20:30:00,
2013-04-13 14:22:00,49.0,31.0,-100.00,WSW,238,3.0,8.0,50,-99.99,,,-99.99,526.000000,,2013-04-13 21:22:00,
2013-04-13 14:30:00,48.0,32.0,-100.00,WSW,241,4.0,13.0,54,-99.99,,,-99.99,462.000000,,2013-04-13 21:30:00,
2013-04-13 15:30:00,48.0,35.0,-100.00,SW,228,3.0,7.0,60,-99.99,,,-99.99,331.000000,,2013-04-13 22:30:00,
2013-04-13 16:30:00,47.0,34.0,-100.00,SW,220,3.0,9.0,60,-99.99,,,-99.99,177.000000,,2013-04-13 23:30:00,
2013-04-13 17:30:00,45.0,32.0,-100.00,WSW,257,2.0,10.0,60,-99.99,,,-99.99,103.000000,,2013-04-14 00:30:00,
2013-04-13 18:22:00,45.0,32.0,-100.00,WSW,257,2.0,10.0,60,-99.99,,,-99.99,103.000000,,2013-04-14 01:22:00,
2013-04-13 19:30:00,40.0,33.0,-100.00,WNW,300,1.0,5.0,76,-99.99,,,-99.99,6.000000,,2013-04-14 02:30:00,
2013-04-13 20:30:00,38.0,34.0,-100.00,NW,318,1.0,3.0,85,-99.99,,,-99.99,0.000000,,2013-04-14 03:30:00,
2013-04-13 21:23:00,38.0,34.0,-100.00,NW,318,1.0,3.0,85,-99.99,,,-99.99,0.000000,,2013-04-14 04:23:00,
2013-04-13 21:30:00,37.0,34.0,-100.00,NNW,344,0.0,1.0,87,-99.99,,,-99.99,0.000000,,2013-04-14 04:30:00,
2013-04-13 22:22:00,37.0,34.0,-100.00,NNW,344,0.0,1.0,87,-99.99,,,-99.99,0.000000,,2013-04-14 05:22:00,
2013-04-13 23:30:00,37.0,33.0,-100.00,WNW,283,1.0,3.0,85,-99.99,,,-99.99,0.000000,,2013-04-14 06:30:00,